createdAt,value
2023-04-09T00:01:37.007Z,20.20
2023-04-09T00:04:05.194Z,19.20
2023-04-09T00:06:33.035Z,19.17
2023-04-09T00:09:08.546Z,19.27
2023-04-09T00:11:52.988Z,20.67
2023-04-09T00:14:23.613Z,21.50
2023-04-09T00:16:53.955Z,19.53
2023-04-09T00:19:24.618Z,19.40
2023-04-09T00:22:01.385Z,20.43
2023-04-09T00:24:33.360Z,23.30
2023-04-09T00:27:06.179Z,21.53
2023-04-09T00:29:34.488Z,20.80
2023-04-09T00:32:07.944Z,18.57
2023-04-09T00:34:43.481Z,19.20
2023-04-09T00:37:13.598Z,21.40
2023-04-09T00:39:41.869Z,21.67
2023-04-09T00:42:15.514Z,21.27
2023-04-09T00:44:45.776Z,20.40
2023-04-09T00:47:13.359Z,19.40
2023-04-09T00:49:40.931Z,18.57
2023-04-09T00:52:13.382Z,21.20
2023-04-09T00:54:41.859Z,18.80
2023-04-09T00:57:10.717Z,20.10
2023-04-09T00:59:38.996Z,19.50
2023-04-09T01:02:06.915Z,19.27
2023-04-09T01:04:36.885Z,20.20
2023-04-09T01:07:11.658Z,20.13
2023-04-09T01:09:45.708Z,19.83
2023-04-09T01:12:24.464Z,21.67
2023-04-09T01:14:59.413Z,20.70
2023-04-09T01:17:34.397Z,21.37
2023-04-09T01:20:08.640Z,20.40
2023-04-09T01:22:57.438Z,21.30
2023-04-09T01:25:43.347Z,17.77
2023-04-09T01:28:18.277Z,20.50
2023-04-09T01:30:49.410Z,22.40
2023-04-09T01:33:19.607Z,20.67
2023-04-09T01:35:49.496Z,19.20
2023-04-09T01:38:20.138Z,21.90
2023-04-09T01:40:48.500Z,19.00
2023-04-09T01:43:17.610Z,19.13
2023-04-09T01:45:45.342Z,19.70
2023-04-09T01:48:13.845Z,19.20
2023-04-09T01:50:41.476Z,20.20
2023-04-09T01:53:13.466Z,18.17
2023-04-09T01:55:41.277Z,20.00
2023-04-09T01:58:18.985Z,19.30
2023-04-09T02:00:48.608Z,18.93
2023-04-09T02:03:24.926Z,18.00
2023-04-09T02:05:58.842Z,19.10
2023-04-09T02:08:27.873Z,18.40
2023-04-09T02:10:58.724Z,19.13
2023-04-09T02:13:28.127Z,20.40
2023-04-09T02:15:56.507Z,19.97
2023-04-09T02:18:26.596Z,21.60
2023-04-09T02:20:54.433Z,21.17
2023-04-09T02:23:22.007Z,21.17
2023-04-09T02:25:49.637Z,21.30
2023-04-09T02:28:16.906Z,20.70
2023-04-09T02:30:44.935Z,19.87
2023-04-09T02:33:12.177Z,22.70
2023-04-09T02:35:39.478Z,21.47
2023-04-09T02:38:12.875Z,21.40
2023-04-09T02:40:40.778Z,20.77
2023-04-09T02:43:08.433Z,20.07
2023-04-09T02:45:36.228Z,18.30
2023-04-09T02:48:04.784Z,21.40
2023-04-09T02:50:32.047Z,20.03
2023-04-09T02:52:59.349Z,21.40
2023-04-09T02:55:26.661Z,20.67
2023-04-09T02:57:53.937Z,20.23
2023-04-09T03:00:21.290Z,18.97
2023-04-09T03:02:49.155Z,19.83
2023-04-09T03:05:17.242Z,21.77
2023-04-09T03:07:44.568Z,20.33
2023-04-09T03:10:11.945Z,24.17
2023-04-09T03:12:39.308Z,24.67
2023-04-09T03:15:07.569Z,26.03
2023-04-09T03:17:34.954Z,26.90
2023-04-09T03:20:02.537Z,26.57
2023-04-09T03:22:35.530Z,29.57
2023-04-09T03:25:03.301Z,25.20
2023-04-09T03:27:31.795Z,27.03
2023-04-09T03:29:59.124Z,26.90
2023-04-09T03:32:26.525Z,23.80
2023-04-09T03:34:54.062Z,26.97
2023-04-09T03:37:21.376Z,25.37
2023-04-09T03:39:49.280Z,29.23
2023-04-09T03:42:16.559Z,25.73
2023-04-09T03:44:43.907Z,23.90
2023-04-09T03:47:11.229Z,25.40
2023-04-09T03:49:38.497Z,23.80
2023-04-09T03:52:07.071Z,23.70
2023-04-09T03:54:34.331Z,25.20
2023-04-09T03:57:03.098Z,23.50
2023-04-09T03:59:30.380Z,21.80
2023-04-09T04:01:57.731Z,24.50
2023-04-09T04:04:25.080Z,23.50
2023-04-09T04:06:52.375Z,25.40
2023-04-09T04:09:19.640Z,26.57
2023-04-09T04:11:47.133Z,26.60
2023-04-09T04:14:15.783Z,23.33
2023-04-09T04:16:43.633Z,27.13
2023-04-09T04:19:11.042Z,25.17
2023-04-09T04:21:38.320Z,27.90
2023-04-09T04:24:06.054Z,22.17
2023-04-09T04:26:33.321Z,21.47
2023-04-09T04:29:00.661Z,25.90
2023-04-09T04:31:29.007Z,23.70
2023-04-09T04:33:56.340Z,24.40
2023-04-09T04:36:23.792Z,23.53
2023-04-09T04:38:51.631Z,24.57
2023-04-09T04:41:20.236Z,22.50
2023-04-09T04:43:48.359Z,24.43
2023-04-09T04:46:16.239Z,25.50
2023-04-09T04:48:44.717Z,23.93
2023-04-09T04:51:13.277Z,23.03
2023-04-09T04:53:40.750Z,27.40
2023-04-09T04:56:12.190Z,27.20
2023-04-09T04:58:39.957Z,27.73
2023-04-09T05:01:07.555Z,31.37
2023-04-09T05:03:35.088Z,29.27
2023-04-09T05:06:03.774Z,30.63
2023-04-09T05:08:31.235Z,29.03
2023-04-09T05:10:58.568Z,28.53
2023-04-09T05:13:26.084Z,28.20
2023-04-09T05:15:53.675Z,29.77
2023-04-09T05:18:21.456Z,28.50
2023-04-09T05:20:49.080Z,25.97
2023-04-09T05:23:17.621Z,26.30
2023-04-09T05:25:45.546Z,27.80
2023-04-09T05:28:19.835Z,31.80
2023-04-09T05:30:51.413Z,26.60
2023-04-09T05:33:39.876Z,28.87
2023-04-09T05:36:30.704Z,27.70
2023-04-09T05:39:21.880Z,27.93
2023-04-09T05:42:22.588Z,34.23
2023-04-09T05:48:43.946Z,24.70
2023-04-09T05:51:32.043Z,22.40
2023-04-09T05:54:40.368Z,23.73
2023-04-09T05:57:37.627Z,28.00
2023-04-09T06:00:14.032Z,24.70
2023-04-09T06:02:49.905Z,24.33
2023-04-09T06:05:17.810Z,23.00
2023-04-09T06:07:46.968Z,21.60
2023-04-09T06:10:15.160Z,20.03
2023-04-09T06:12:43.481Z,19.97
2023-04-09T06:15:11.243Z,18.63
2023-04-09T06:17:38.538Z,20.13
2023-04-09T06:20:06.790Z,21.80
2023-04-09T06:22:34.007Z,20.90
2023-04-09T06:25:01.264Z,21.20
2023-04-09T06:27:28.775Z,20.00
2023-04-09T06:29:57.469Z,23.40
2023-04-09T06:32:25.480Z,23.20
2023-04-09T06:34:52.879Z,24.23
2023-04-09T06:37:20.221Z,25.63
2023-04-09T06:40:00.668Z,23.63
2023-04-09T06:42:28.926Z,22.90
2023-04-09T06:44:57.667Z,21.77
2023-04-09T06:47:25.478Z,22.87
2023-04-09T06:49:52.931Z,22.67
2023-04-09T06:52:20.550Z,23.10
2023-04-09T06:54:48.203Z,24.03
2023-04-09T06:57:15.785Z,25.07
2023-04-09T06:59:43.174Z,24.93
2023-04-09T07:02:12.026Z,23.83
2023-04-09T07:04:39.918Z,26.40
2023-04-09T07:07:07.564Z,25.37
2023-04-09T07:09:34.947Z,27.00
2023-04-09T07:12:02.597Z,26.10
2023-04-09T07:14:29.998Z,28.07
2023-04-09T07:16:57.501Z,30.93
2023-04-09T07:19:26.295Z,27.33
2023-04-09T07:21:53.695Z,29.73
2023-04-09T07:24:21.237Z,29.07
2023-04-09T07:26:51.193Z,29.40
2023-04-09T07:29:21.975Z,30.17
2023-04-09T07:31:49.281Z,31.03
2023-04-09T07:34:16.679Z,31.40
2023-04-09T07:36:44.814Z,32.40
2023-04-09T07:39:12.098Z,31.63
2023-04-09T07:41:39.460Z,33.93
2023-04-09T07:44:06.952Z,32.30
2023-04-09T07:46:34.234Z,34.43
2023-04-09T07:49:01.525Z,32.13
2023-04-09T07:51:28.788Z,38.50
2023-04-09T07:53:56.723Z,39.07
2023-04-09T07:56:24.071Z,38.33
2023-04-09T07:58:51.713Z,40.40
2023-04-09T08:01:20.963Z,38.90
2023-04-09T08:03:48.572Z,41.10
2023-04-09T08:06:15.941Z,38.53
2023-04-09T08:08:44.223Z,37.80
2023-04-09T08:11:12.109Z,37.77
2023-04-09T08:13:39.793Z,33.57
2023-04-09T08:16:07.134Z,35.37
2023-04-09T08:18:34.443Z,37.87
2023-04-09T08:21:05.404Z,33.87
2023-04-09T08:23:32.660Z,32.13
2023-04-09T08:25:59.986Z,31.10
2023-04-09T08:28:28.196Z,33.30
2023-04-09T08:30:55.842Z,31.70
2023-04-09T08:33:23.175Z,31.90
2023-04-09T08:35:50.606Z,30.63
2023-04-09T08:38:23.857Z,28.83
2023-04-09T08:40:51.324Z,27.10
2023-04-09T08:43:23.635Z,26.60
2023-04-09T08:45:58.654Z,27.27
2023-04-09T08:48:26.330Z,30.50
2023-04-09T08:50:54.173Z,30.27
2023-04-09T08:53:22.663Z,30.10
2023-04-09T08:55:49.975Z,28.20
2023-04-09T08:58:17.219Z,27.90
2023-04-09T09:00:44.540Z,30.83
2023-04-09T09:03:12.886Z,29.23
2023-04-09T09:05:41.684Z,28.20
2023-04-09T09:08:09.963Z,27.63
2023-04-09T09:10:42.262Z,28.30
2023-04-09T09:13:23.127Z,27.23
2023-04-09T09:15:54.495Z,27.40
2023-04-09T09:18:37.285Z,30.13
2023-04-09T09:21:11.466Z,26.53
2023-04-09T09:23:38.855Z,24.73
2023-04-09T09:26:12.912Z,23.60
2023-04-09T09:28:41.147Z,21.47
2023-04-09T09:31:09.392Z,22.20
2023-04-09T09:33:37.741Z,22.70
2023-04-09T09:36:05.778Z,17.77
2023-04-09T09:38:33.106Z,21.93
2023-04-09T09:41:17.372Z,24.07
2023-04-09T09:43:45.373Z,24.20
2023-04-09T09:46:13.278Z,19.67
2023-04-09T09:48:41.717Z,23.90
2023-04-09T09:51:10.481Z,22.60
2023-04-09T09:53:39.170Z,20.80
2023-04-09T09:56:10.967Z,23.70
2023-04-09T09:58:41.576Z,21.53
2023-04-09T10:01:10.957Z,27.10
2023-04-09T10:03:42.202Z,26.17
2023-04-09T10:06:11.100Z,23.73
2023-04-09T10:08:41.113Z,26.20
2023-04-09T10:11:09.044Z,28.10
2023-04-09T10:13:43.584Z,25.67
2023-04-09T10:16:11.135Z,25.63
2023-04-09T10:18:39.238Z,29.10
2023-04-09T10:21:16.246Z,27.80
2023-04-09T10:23:48.755Z,28.97
2023-04-09T10:26:18.070Z,22.07
2023-04-09T10:28:45.684Z,25.40
2023-04-09T10:31:14.113Z,25.70
2023-04-09T10:33:49.471Z,24.53
2023-04-09T10:36:21.714Z,26.53
2023-04-09T10:38:50.213Z,25.80
2023-04-09T10:41:27.349Z,26.10
2023-04-09T10:43:54.914Z,25.50
2023-04-09T10:46:27.417Z,27.00
2023-04-09T10:49:11.458Z,24.90
2023-04-09T10:51:39.979Z,27.30
2023-04-09T10:54:32.938Z,24.50
2023-04-09T10:57:14.208Z,27.00
2023-04-09T10:59:44.171Z,24.10
2023-04-09T11:02:40.030Z,26.23
2023-04-09T11:05:18.253Z,28.23
2023-04-09T11:07:52.261Z,21.80
2023-04-09T11:10:22.361Z,16.80
2023-04-09T11:12:50.278Z,26.53
2023-04-09T11:15:18.569Z,25.60
2023-04-09T11:17:47.032Z,25.90
2023-04-09T11:20:15.128Z,21.10
2023-04-09T11:22:42.954Z,24.60
2023-04-09T11:25:17.311Z,20.30
2023-04-09T11:27:47.049Z,25.13
2023-04-09T11:30:15.163Z,24.47
2023-04-09T11:32:43.036Z,22.30
2023-04-09T11:35:15.002Z,23.93
2023-04-09T11:37:43.586Z,23.57
2023-04-09T11:40:16.818Z,23.50
2023-04-09T11:42:45.060Z,23.43
2023-04-09T11:45:13.267Z,21.30
2023-04-09T11:47:41.575Z,24.70
2023-04-09T11:50:11.184Z,19.03
2023-04-09T11:52:40.814Z,21.80
2023-04-09T11:55:09.449Z,22.93
2023-04-09T11:57:42.664Z,25.20
2023-04-09T12:00:12.076Z,23.73
2023-04-09T12:02:41.622Z,17.60
2023-04-09T12:05:11.400Z,22.63
2023-04-09T12:07:39.598Z,17.73
2023-04-09T12:10:10.144Z,21.60
2023-04-09T12:12:42.872Z,17.40
2023-04-09T12:15:20.409Z,19.07
2023-04-09T12:17:49.337Z,19.70
2023-04-09T12:20:30.758Z,14.90
2023-04-09T12:23:00.631Z,16.60
2023-04-09T12:25:28.632Z,20.30
2023-04-09T12:28:09.045Z,18.30
2023-04-09T12:30:36.884Z,16.53
2023-04-09T12:33:04.734Z,19.17
2023-04-09T12:35:32.380Z,18.63
2023-04-09T12:38:00.125Z,17.73
2023-04-09T12:40:27.883Z,13.97
2023-04-09T12:42:56.039Z,21.53
2023-04-09T12:45:23.502Z,17.30
2023-04-09T12:47:51.082Z,19.60
2023-04-09T12:50:18.492Z,18.60
2023-04-09T12:52:46.374Z,17.93
2023-04-09T12:55:14.562Z,14.40
2023-04-09T12:57:44.721Z,16.30
2023-04-09T13:00:13.984Z,19.07
2023-04-09T13:02:41.642Z,15.90
2023-04-09T13:05:09.783Z,18.80
2023-04-09T13:07:37.145Z,14.83
2023-04-09T13:10:04.963Z,11.13
2023-04-09T13:12:32.478Z,8.60
2023-04-09T13:14:59.883Z,16.77
2023-04-09T13:17:27.969Z,16.13
2023-04-09T13:19:55.406Z,17.07
2023-04-09T13:22:22.796Z,13.57
2023-04-09T13:24:50.385Z,8.57
2023-04-09T13:27:17.715Z,16.37
2023-04-09T13:29:44.995Z,18.87
2023-04-09T13:32:12.437Z,16.20
2023-04-09T13:34:41.855Z,17.60
2023-04-09T13:37:09.129Z,20.80
2023-04-09T13:39:36.427Z,17.23
2023-04-09T13:42:12.599Z,13.90
2023-04-09T13:44:41.507Z,16.30
2023-04-09T13:47:10.507Z,19.07
2023-04-09T13:49:37.865Z,15.80
2023-04-09T13:52:06.192Z,16.63
2023-04-09T13:54:33.820Z,19.80
2023-04-09T13:57:01.294Z,18.97
2023-04-09T13:59:29.159Z,22.87
2023-04-09T14:01:56.616Z,25.63
2023-04-09T14:04:24.110Z,18.10
2023-04-09T14:06:51.494Z,22.10
2023-04-09T14:09:19.540Z,23.07
2023-04-09T14:11:47.029Z,20.47
2023-04-09T14:14:14.366Z,19.17
2023-04-09T14:16:41.818Z,17.17
2023-04-09T14:19:09.726Z,19.50
2023-04-09T14:21:37.223Z,22.13
2023-04-09T14:24:05.383Z,22.10
2023-04-09T14:26:33.574Z,22.70
2023-04-09T14:29:00.958Z,23.70
2023-04-09T14:31:28.656Z,24.47
2023-04-09T14:33:56.184Z,20.73
2023-04-09T14:36:24.236Z,23.80
2023-04-09T14:38:52.533Z,22.07
2023-04-09T14:41:20.964Z,23.97
2023-04-09T14:43:49.300Z,21.37
2023-04-09T14:46:16.774Z,22.27
2023-04-09T14:48:44.167Z,20.27
2023-04-09T14:51:11.895Z,20.13
2023-04-09T14:53:39.318Z,21.73
2023-04-09T14:56:07.373Z,21.30
2023-04-09T14:58:34.694Z,19.27
2023-04-09T15:01:03.566Z,22.63
2023-04-09T15:03:31.265Z,22.10
2023-04-09T15:05:59.947Z,22.77
2023-04-09T15:08:27.226Z,21.37
2023-04-09T15:10:54.615Z,22.03
2023-04-09T15:13:22.057Z,22.27
2023-04-09T15:15:49.571Z,21.87
2023-04-09T15:18:18.682Z,21.87
2023-04-09T15:20:47.041Z,17.43
2023-04-09T15:23:14.386Z,20.30
2023-04-09T15:25:41.763Z,21.43
2023-04-09T15:28:09.246Z,15.60
2023-04-09T15:30:36.589Z,18.67
2023-04-09T15:33:05.597Z,18.13
2023-04-09T15:35:33.764Z,18.83
2023-04-09T15:38:01.074Z,18.17
2023-04-09T15:40:28.484Z,17.50
2023-04-09T15:42:55.803Z,19.47
2023-04-09T15:45:23.072Z,21.87
2023-04-09T15:47:50.396Z,21.13
2023-04-09T15:50:17.727Z,18.83
2023-04-09T15:52:45.769Z,20.50
2023-04-09T15:55:13.051Z,20.70
2023-04-09T15:57:40.600Z,19.70
2023-04-09T16:00:10.030Z,19.10
2023-04-09T16:02:38.144Z,20.20
2023-04-09T16:05:06.454Z,18.83
2023-04-09T16:07:33.872Z,18.00
2023-04-09T16:10:01.952Z,17.80
2023-04-09T16:12:29.307Z,19.20
2023-04-09T16:14:56.703Z,18.60
2023-04-09T16:17:24.382Z,18.53
2023-04-09T16:19:51.751Z,18.90
2023-04-09T16:22:19.119Z,19.73
2023-04-09T16:24:46.457Z,18.50
2023-04-09T16:27:15.236Z,19.17
2023-04-09T16:29:42.681Z,19.20
2023-04-09T16:32:10.054Z,15.90
2023-04-09T16:34:37.434Z,18.60
2023-04-09T16:37:04.912Z,18.53
2023-04-09T16:39:32.243Z,15.77
2023-04-09T16:42:00.856Z,18.43
2023-04-09T16:44:29.029Z,18.97
2023-04-09T16:46:56.377Z,18.47
2023-04-09T16:49:23.951Z,19.27
2023-04-09T16:51:52.422Z,17.83
2023-04-09T16:54:19.752Z,18.17
2023-04-09T16:56:48.052Z,19.30
2023-04-09T16:59:16.938Z,19.87
2023-04-09T17:01:45.153Z,19.37
2023-04-09T17:04:12.696Z,16.90
2023-04-09T17:06:40.025Z,19.90
2023-04-09T17:09:07.368Z,18.53
2023-04-09T17:11:34.793Z,17.03
2023-04-09T17:14:02.149Z,19.30
2023-04-09T17:16:29.951Z,19.37
2023-04-09T17:18:58.291Z,18.43
2023-04-09T17:21:26.128Z,21.00
2023-04-09T17:23:53.405Z,20.10
2023-04-09T17:26:20.761Z,20.63
2023-04-09T17:28:51.844Z,19.70
2023-04-09T17:31:23.445Z,19.70
2023-04-09T17:33:53.304Z,20.23
2023-04-09T17:36:22.252Z,20.23
2023-04-09T17:38:51.413Z,22.37
2023-04-09T17:41:18.901Z,22.17
2023-04-09T17:43:46.392Z,24.23
2023-04-09T17:46:13.714Z,23.57
2023-04-09T17:48:41.480Z,24.33
2023-04-09T17:51:14.014Z,23.33
2023-04-09T17:53:42.484Z,23.90
2023-04-09T17:56:14.012Z,24.20
2023-04-09T17:58:41.391Z,26.80
2023-04-09T18:01:09.053Z,23.53
2023-04-09T18:03:36.823Z,23.43
2023-04-09T18:06:06.341Z,23.40
2023-04-09T18:08:33.798Z,21.93
2023-04-09T18:11:11.939Z,22.20
2023-04-09T18:13:40.400Z,22.70
2023-04-09T18:16:09.423Z,22.27
2023-04-09T18:18:36.832Z,21.67
2023-04-09T18:21:05.432Z,19.60
2023-04-09T18:23:32.871Z,20.47
2023-04-09T18:26:02.836Z,20.83
2023-04-09T18:28:30.196Z,22.47
2023-04-09T18:30:58.098Z,20.37
2023-04-09T18:33:26.392Z,22.83
2023-04-09T18:35:53.988Z,20.03
2023-04-09T18:38:21.335Z,22.27
2023-04-09T18:40:48.735Z,23.20
2023-04-09T18:43:19.670Z,22.67
2023-04-09T18:45:47.041Z,24.17
2023-04-09T18:48:14.679Z,24.20
2023-04-09T18:50:42.101Z,21.80
2023-04-09T18:53:09.746Z,23.70
2023-04-09T18:55:37.449Z,22.80
2023-04-09T18:58:07.942Z,20.87
2023-04-09T19:00:36.050Z,22.17
2023-04-09T19:03:03.817Z,23.50
2023-04-09T19:05:31.808Z,23.77
2023-04-09T19:07:59.393Z,22.90
2023-04-09T19:10:27.538Z,25.43
2023-04-09T19:12:55.337Z,23.60
2023-04-09T19:15:25.378Z,23.13
2023-04-09T19:17:54.229Z,24.87
2023-04-09T19:20:21.766Z,22.53
2023-04-09T19:22:49.693Z,23.53
2023-04-09T19:25:17.538Z,23.37
2023-04-09T19:27:45.151Z,25.37
2023-04-09T19:30:13.174Z,23.97
2023-04-09T19:32:41.145Z,24.70
2023-04-09T19:35:09.793Z,28.33
2023-04-09T19:37:37.116Z,26.10
2023-04-09T19:40:05.223Z,23.60
2023-04-09T19:42:32.611Z,24.43
2023-04-09T19:44:59.960Z,23.57
2023-04-09T19:47:27.633Z,20.97
2023-04-09T19:49:55.261Z,22.57
2023-04-09T19:52:23.325Z,23.50
2023-04-09T19:54:54.729Z,21.43
2023-04-09T19:57:22.398Z,22.47
2023-04-09T19:59:51.526Z,21.90
2023-04-09T20:02:18.924Z,22.33
2023-04-09T20:04:46.250Z,21.93
2023-04-09T20:07:13.614Z,23.00
2023-04-09T20:09:41.792Z,22.13
2023-04-09T20:12:09.664Z,20.80
2023-04-09T20:14:38.532Z,21.87
2023-04-09T20:17:07.989Z,22.63
2023-04-09T20:19:35.579Z,23.03
2023-04-09T20:22:02.956Z,22.53
2023-04-09T20:24:30.256Z,21.90
2023-04-09T20:26:59.000Z,23.03
2023-04-09T20:29:26.423Z,23.50
2023-04-09T20:31:53.827Z,21.50
2023-04-09T20:34:25.832Z,20.87
2023-04-09T20:36:53.393Z,22.63
2023-04-09T20:39:21.043Z,23.47
2023-04-09T20:41:48.321Z,22.30
2023-04-09T20:44:16.382Z,21.53
2023-04-09T20:46:43.753Z,21.50
2023-04-09T20:49:11.553Z,21.33
2023-04-09T20:51:39.257Z,22.50
2023-04-09T20:54:06.566Z,21.57
2023-04-09T20:56:33.876Z,21.87
2023-04-09T20:59:01.222Z,22.73
2023-04-09T21:01:29.663Z,22.23
2023-04-09T21:03:57.121Z,22.13
2023-04-09T21:06:24.737Z,22.07
2023-04-09T21:08:52.192Z,24.57
2023-04-09T21:11:19.554Z,42.40
2023-04-09T21:13:54.714Z,30.50
2023-04-09T21:16:22.961Z,46.00
2023-04-09T21:18:51.332Z,25.10
2023-04-09T21:21:19.018Z,24.30
2023-04-09T21:23:46.525Z,21.53
2023-04-09T21:26:14.363Z,23.60
2023-04-09T21:28:41.894Z,24.70
2023-04-09T21:31:11.058Z,24.50
2023-04-09T21:33:39.042Z,24.03
2023-04-09T21:36:08.307Z,23.53
2023-04-09T21:38:35.859Z,24.20
2023-04-09T21:41:03.329Z,36.97
2023-04-09T21:43:30.627Z,35.37
2023-04-09T21:45:58.020Z,31.50
2023-04-09T21:48:25.719Z,25.37
2023-04-09T21:50:56.386Z,24.50
2023-04-09T21:53:24.898Z,25.00
2023-04-09T21:55:52.296Z,38.43
2023-04-09T21:58:19.586Z,42.17
2023-04-09T22:00:47.584Z,31.10
2023-04-09T22:03:15.263Z,24.93
2023-04-09T22:05:46.256Z,28.60
2023-04-09T22:08:13.667Z,43.70
2023-04-09T22:10:41.641Z,29.13
2023-04-09T22:13:08.890Z,23.67
2023-04-09T22:15:36.428Z,24.03
2023-04-09T22:18:06.116Z,25.90
2023-04-09T22:20:33.357Z,27.00
2023-04-09T22:23:00.631Z,35.80
2023-04-09T22:25:33.963Z,41.60
2023-04-09T22:28:05.153Z,56.23
2023-04-09T22:30:32.877Z,25.80
2023-04-09T22:33:01.313Z,23.97
2023-04-09T22:35:28.689Z,24.50
2023-04-09T22:37:55.998Z,27.30
2023-04-09T22:40:23.672Z,32.90
2023-04-09T22:42:51.088Z,30.90
2023-04-09T22:45:19.703Z,26.57
2023-04-09T22:47:47.253Z,24.60
2023-04-09T22:50:15.029Z,23.00
2023-04-09T22:52:42.400Z,26.60
2023-04-09T22:55:10.660Z,23.57
2023-04-09T22:57:37.956Z,23.40
2023-04-09T23:00:07.772Z,22.23
2023-04-09T23:02:36.429Z,21.70
2023-04-09T23:05:04.451Z,23.30
2023-04-09T23:07:31.797Z,32.80
2023-04-09T23:09:59.696Z,33.17
2023-04-09T23:12:26.959Z,25.17
2023-04-09T23:14:54.227Z,38.53
2023-04-09T23:17:23.687Z,30.97
2023-04-09T23:19:52.007Z,22.73
2023-04-09T23:22:19.354Z,22.83
2023-04-09T23:24:46.811Z,24.80
2023-04-09T23:27:14.706Z,25.93
2023-04-09T23:29:42.052Z,23.50
2023-04-09T23:32:09.331Z,24.47
2023-04-09T23:34:36.605Z,27.13
2023-04-09T23:37:04.704Z,25.50
2023-04-09T23:39:32.157Z,25.53
2023-04-09T23:41:59.409Z,25.53
2023-04-09T23:44:27.355Z,28.67
2023-04-09T23:46:54.998Z,27.00
2023-04-09T23:49:22.276Z,28.03
2023-04-09T23:51:51.496Z,35.93
2023-04-09T23:54:19.687Z,31.93
2023-04-09T23:56:47.174Z,27.20
2023-04-09T23:59:14.622Z,26.80
